createdAt,value
2018-06-17T00:00:27.667Z,22.15
2018-06-17T00:04:31.149Z,22.10
2018-06-17T00:08:34.577Z,22.09
2018-06-17T00:12:38.000Z,22.04
2018-06-17T00:16:41.430Z,21.99
2018-06-17T00:20:44.841Z,21.93
2018-06-17T00:24:48.288Z,21.90
2018-06-17T00:28:51.734Z,21.85
2018-06-17T00:32:55.156Z,21.82
2018-06-17T00:36:58.577Z,21.78
2018-06-17T00:41:02.050Z,21.74
2018-06-17T00:45:05.635Z,21.73
2018-06-17T00:49:09.057Z,21.73
2018-06-17T00:53:12.467Z,21.72
2018-06-17T00:57:27.261Z,21.67
2018-06-17T01:01:30.684Z,21.65
2018-06-17T01:05:34.125Z,21.63
2018-06-17T01:09:37.550Z,21.62
2018-06-17T01:13:40.989Z,21.59
2018-06-17T01:17:44.407Z,21.58
2018-06-17T01:21:47.852Z,21.54
2018-06-17T01:25:51.275Z,21.50
2018-06-17T01:29:54.704Z,21.47
2018-06-17T01:33:58.123Z,21.44
2018-06-17T01:38:01.618Z,21.42
2018-06-17T01:42:05.059Z,21.42
2018-06-17T01:46:08.532Z,21.42
2018-06-17T01:50:11.962Z,21.40
2018-06-17T01:54:15.401Z,21.36
2018-06-17T01:58:18.872Z,21.34
2018-06-17T02:02:22.298Z,21.32
2018-06-17T02:06:31.098Z,21.32
2018-06-17T02:11:37.597Z,21.29
2018-06-17T02:15:40.989Z,21.22
2018-06-17T02:19:44.425Z,21.18
2018-06-17T02:23:47.871Z,21.17
2018-06-17T02:27:51.311Z,21.15
2018-06-17T02:31:54.753Z,21.11
2018-06-17T02:35:58.219Z,21.05
2018-06-17T02:40:01.633Z,21.00
2018-06-17T02:44:05.102Z,20.95
2018-06-17T02:48:13.696Z,20.92
2018-06-17T02:52:22.522Z,20.90
2018-06-17T02:56:25.964Z,20.86
2018-06-17T03:00:29.397Z,20.84
2018-06-17T03:04:32.827Z,20.82
2018-06-17T03:08:42.726Z,20.82
2018-06-17T03:12:46.163Z,20.83
2018-06-17T03:16:49.594Z,20.85
2018-06-17T03:20:52.998Z,20.82
2018-06-17T03:25:01.596Z,20.82
2018-06-17T03:29:10.132Z,20.82
2018-06-17T03:34:17.528Z,20.80
2018-06-17T03:38:20.956Z,20.78
2018-06-17T03:42:24.402Z,20.77
2018-06-17T03:46:27.870Z,20.77
2018-06-17T03:50:31.273Z,20.75
2018-06-17T03:54:34.694Z,20.77
2018-06-17T03:58:38.152Z,20.80
2018-06-17T04:02:42.425Z,20.81
2018-06-17T04:06:45.854Z,20.85
2018-06-17T04:10:49.315Z,20.89
2018-06-17T04:14:52.752Z,20.91
2018-06-17T04:18:56.153Z,20.95
2018-06-17T04:22:59.590Z,21.00
2018-06-17T04:27:03.034Z,21.02
2018-06-17T04:31:06.551Z,21.05
2018-06-17T04:35:10.005Z,21.08
2018-06-17T04:39:13.460Z,21.13
2018-06-17T04:43:16.908Z,21.17
2018-06-17T04:47:20.355Z,21.22
2018-06-17T04:51:23.842Z,21.28
2018-06-17T04:55:27.271Z,21.36
2018-06-17T04:59:30.700Z,21.45
2018-06-17T05:03:34.134Z,21.57
2018-06-17T05:07:37.570Z,21.70
2018-06-17T05:11:41.055Z,21.85
2018-06-17T05:15:44.474Z,22.03
2018-06-17T05:19:47.936Z,22.23
2018-06-17T05:23:51.399Z,22.45
2018-06-17T05:27:54.831Z,22.66
2018-06-17T05:31:58.402Z,22.91
2018-06-17T05:36:01.871Z,23.19
2018-06-17T05:40:05.316Z,23.44
2018-06-17T05:44:08.780Z,23.69
2018-06-17T05:48:12.230Z,23.93
2018-06-17T05:52:15.693Z,24.17
2018-06-17T05:56:20.098Z,24.42
2018-06-17T06:00:23.522Z,24.60
2018-06-17T06:04:26.940Z,24.81
2018-06-17T06:08:30.756Z,25.03
2018-06-17T06:12:34.189Z,25.16
2018-06-17T06:16:37.612Z,25.33
2018-06-17T06:20:41.084Z,25.48
2018-06-17T06:24:44.572Z,25.63
2018-06-17T06:28:47.971Z,25.79
2018-06-17T06:32:51.405Z,25.92
2018-06-17T06:36:54.836Z,26.08
2018-06-17T06:40:58.294Z,26.24
2018-06-17T06:45:01.724Z,26.42
2018-06-17T06:49:05.179Z,26.58
2018-06-17T06:53:08.631Z,26.65
2018-06-17T06:57:12.039Z,26.68
2018-06-17T07:01:25.407Z,26.64
2018-06-17T07:05:40.392Z,26.71
2018-06-17T07:09:56.900Z,26.83
2018-06-17T07:14:00.331Z,26.96
2018-06-17T07:18:15.152Z,26.96
2018-06-17T07:22:18.584Z,26.98
2018-06-17T07:26:39.626Z,27.10
2018-06-17T07:30:43.082Z,27.21
2018-06-17T07:34:46.830Z,27.29
2018-06-17T07:38:50.265Z,27.28
2018-06-17T07:42:53.750Z,27.37
2018-06-17T07:46:57.175Z,27.48
2018-06-17T07:51:11.853Z,27.60
2018-06-17T07:55:15.314Z,27.66
2018-06-17T07:59:18.766Z,27.78
2018-06-17T08:03:22.202Z,27.89
2018-06-17T08:07:25.659Z,28.01
2018-06-17T08:11:29.124Z,28.11
2018-06-17T08:15:32.574Z,28.19
2018-06-17T08:19:36.150Z,28.35
2018-06-17T08:23:39.569Z,28.49
2018-06-17T08:27:43.055Z,28.58
2018-06-17T08:31:46.465Z,28.65
2018-06-17T08:35:49.883Z,28.66
2018-06-17T08:39:53.343Z,28.74
2018-06-17T08:43:56.779Z,28.73
2018-06-17T08:48:00.187Z,28.82
2018-06-17T08:52:03.649Z,28.78
2018-06-17T08:56:07.085Z,28.83
2018-06-17T09:00:10.564Z,28.92
2018-06-17T09:04:14.001Z,29.01
2018-06-17T09:08:17.430Z,29.10
2018-06-17T09:12:20.878Z,29.16
2018-06-17T09:16:24.909Z,29.18
2018-06-17T09:20:28.363Z,29.30
2018-06-17T09:24:31.771Z,29.40
2018-06-17T09:28:35.212Z,29.50
2018-06-17T09:32:38.659Z,29.63
2018-06-17T09:36:42.084Z,29.74
2018-06-17T09:40:45.514Z,29.73
2018-06-17T09:44:48.939Z,29.65
2018-06-17T09:48:52.420Z,29.66
2018-06-17T09:52:55.822Z,29.67
2018-06-17T09:56:59.287Z,29.65
2018-06-17T10:01:02.734Z,29.72
2018-06-17T10:05:06.239Z,29.80
2018-06-17T10:09:10.510Z,29.93
2018-06-17T10:13:14.537Z,29.89
2018-06-17T10:17:17.946Z,29.93
2018-06-17T10:21:21.398Z,30.04
2018-06-17T10:25:24.900Z,30.14
2018-06-17T10:29:28.361Z,30.15
2018-06-17T10:33:32.097Z,30.07
2018-06-17T10:37:35.549Z,30.16
2018-06-17T10:41:38.974Z,30.22
2018-06-17T10:45:42.766Z,30.18
2018-06-17T10:49:46.188Z,30.33
2018-06-17T10:53:49.612Z,30.36
2018-06-17T10:57:53.045Z,30.41
2018-06-17T11:01:56.508Z,30.39
2018-06-17T11:05:59.951Z,30.42
2018-06-17T11:10:03.853Z,30.23
2018-06-17T11:14:07.287Z,30.03
2018-06-17T11:18:10.731Z,29.83
2018-06-17T11:22:14.161Z,29.71
2018-06-17T11:26:17.601Z,29.62
2018-06-17T11:30:21.384Z,29.72
2018-06-17T11:34:24.802Z,29.78
2018-06-17T11:38:28.497Z,29.78
2018-06-17T11:42:31.947Z,29.76
2018-06-17T11:46:36.288Z,29.82
2018-06-17T11:50:39.716Z,29.92
2018-06-17T11:54:43.168Z,30.06
2018-06-17T11:58:46.605Z,30.18
2018-06-17T12:02:50.043Z,30.27
2018-06-17T12:06:53.559Z,30.34
2018-06-17T12:10:57.060Z,30.34
2018-06-17T12:15:00.497Z,30.32
2018-06-17T12:19:04.355Z,30.34
2018-06-17T12:23:07.775Z,30.31
2018-06-17T12:27:11.197Z,30.28
2018-06-17T12:31:14.622Z,30.26
2018-06-17T12:35:18.079Z,30.22
2018-06-17T12:39:21.521Z,30.20
2018-06-17T12:43:24.927Z,30.23
2018-06-17T12:47:28.383Z,30.17
2018-06-17T12:51:31.839Z,30.20
2018-06-17T12:55:35.259Z,30.22
2018-06-17T12:59:38.667Z,30.23
2018-06-17T13:03:42.069Z,30.04
2018-06-17T13:07:45.879Z,29.92
2018-06-17T13:11:49.338Z,29.82
2018-06-17T13:15:52.798Z,29.71
2018-06-17T13:19:56.204Z,29.62
2018-06-17T13:23:59.727Z,29.60
2018-06-17T13:28:03.153Z,29.51
2018-06-17T13:32:06.589Z,29.42
2018-06-17T13:36:10.037Z,29.33
2018-06-17T13:40:13.501Z,29.27
2018-06-17T13:44:16.984Z,29.21
2018-06-17T13:48:20.401Z,29.18
2018-06-17T13:52:23.891Z,29.06
2018-06-17T13:56:27.315Z,29.03
2018-06-17T14:00:30.721Z,28.95
2018-06-17T14:04:34.164Z,28.90
2018-06-17T14:08:37.600Z,28.83
2018-06-17T14:12:41.030Z,28.78
2018-06-17T14:16:44.470Z,28.73
2018-06-17T14:20:47.916Z,28.73
2018-06-17T14:24:51.330Z,28.76
2018-06-17T14:28:54.765Z,28.75
2018-06-17T14:32:58.220Z,28.76
2018-06-17T14:37:01.660Z,28.76
2018-06-17T14:41:10.400Z,28.75
2018-06-17T14:45:19.074Z,28.78
2018-06-17T14:49:27.582Z,28.78
2018-06-17T14:53:30.974Z,28.73
2018-06-17T14:57:34.396Z,28.73
2018-06-17T15:01:37.896Z,28.74
2018-06-17T15:05:41.334Z,28.74
2018-06-17T15:09:44.776Z,28.76
2018-06-17T15:13:48.271Z,28.79
2018-06-17T15:17:51.730Z,28.80
2018-06-17T15:21:55.171Z,28.76
2018-06-17T15:25:58.590Z,28.71
2018-06-17T15:30:01.975Z,28.68
2018-06-17T15:34:10.639Z,28.66
2018-06-17T15:38:19.380Z,28.61
2018-06-17T15:42:22.798Z,28.60
2018-06-17T15:46:26.873Z,28.58
2018-06-17T15:50:30.352Z,28.58
2018-06-17T15:54:33.749Z,28.58
2018-06-17T15:58:37.170Z,28.55
2018-06-17T16:02:40.606Z,28.57
2018-06-17T16:06:44.019Z,28.57
2018-06-17T16:10:47.445Z,28.60
2018-06-17T16:14:56.232Z,28.56
2018-06-17T16:19:04.997Z,28.53
2018-06-17T16:23:08.426Z,28.48
2018-06-17T16:27:11.858Z,28.47
2018-06-17T16:31:15.315Z,28.49
2018-06-17T16:35:18.747Z,28.50
2018-06-17T16:39:22.152Z,28.51
2018-06-17T16:43:25.612Z,28.47
2018-06-17T16:47:29.047Z,28.46
2018-06-17T16:51:37.800Z,28.48
2018-06-17T16:55:46.371Z,28.45
2018-06-17T17:00:09.721Z,28.42
2018-06-17T17:04:13.214Z,28.37
2018-06-17T17:08:16.638Z,28.37
2018-06-17T17:12:20.073Z,28.36
2018-06-17T17:16:23.501Z,28.31
2018-06-17T17:20:26.985Z,28.25
2018-06-17T17:24:30.413Z,28.22
2018-06-17T17:28:33.858Z,28.16
2018-06-17T17:32:42.714Z,28.13
2018-06-17T17:36:51.431Z,28.09
2018-06-17T17:40:57.398Z,28.07
2018-06-17T17:45:05.363Z,28.03
2018-06-17T17:49:08.850Z,28.01
2018-06-17T17:53:12.257Z,27.96
2018-06-17T17:57:15.965Z,27.94
2018-06-17T18:01:19.413Z,27.92
2018-06-17T18:05:22.862Z,27.90
2018-06-17T18:09:26.316Z,27.85
2018-06-17T18:13:29.739Z,27.83
2018-06-17T18:17:33.151Z,27.79
2018-06-17T18:21:36.581Z,27.74
2018-06-17T18:25:45.344Z,27.68
2018-06-17T18:29:54.148Z,27.62
2018-06-17T18:34:02.959Z,27.54
2018-06-17T18:38:06.383Z,27.48
2018-06-17T18:42:09.801Z,27.42
2018-06-17T18:46:14.091Z,27.37
2018-06-17T18:50:17.523Z,27.34
2018-06-17T18:54:20.961Z,27.26
2018-06-17T18:58:24.590Z,27.19
2018-06-17T19:02:28.055Z,27.11
2018-06-17T19:06:31.520Z,27.02
2018-06-17T19:10:40.323Z,26.95
2018-06-17T19:14:48.970Z,26.90
2018-06-17T19:18:52.416Z,26.83
2018-06-17T19:22:55.864Z,26.80
2018-06-17T19:26:59.281Z,26.75
2018-06-17T19:31:02.698Z,26.68
2018-06-17T19:35:06.247Z,26.63
2018-06-17T19:39:10.747Z,26.58
2018-06-17T19:43:14.175Z,26.53
2018-06-17T19:47:17.646Z,26.51
2018-06-17T19:51:26.190Z,26.49
2018-06-17T19:55:34.814Z,26.43
2018-06-17T19:59:43.359Z,26.39
2018-06-17T20:03:46.818Z,26.33
2018-06-17T20:07:50.290Z,26.28
2018-06-17T20:11:53.730Z,26.24
2018-06-17T20:15:57.208Z,26.18
2018-06-17T20:20:00.651Z,26.14
2018-06-17T20:24:04.071Z,26.12
2018-06-17T20:28:07.506Z,26.06
2018-06-17T20:32:16.167Z,26.00
2018-06-17T20:37:26.565Z,25.97
2018-06-17T20:41:35.232Z,25.90
2018-06-17T20:45:38.706Z,25.89
2018-06-17T20:49:42.131Z,25.84
2018-06-17T20:53:45.550Z,25.81
2018-06-17T20:57:49.091Z,25.79
2018-06-17T21:01:52.541Z,25.73
2018-06-17T21:05:55.975Z,25.70
2018-06-17T21:09:59.402Z,25.66
2018-06-17T21:14:02.818Z,25.64
2018-06-17T21:18:06.376Z,25.61
2018-06-17T21:22:15.122Z,25.56
2018-06-17T21:26:23.667Z,25.52
2018-06-17T21:30:27.132Z,25.49
2018-06-17T21:34:30.543Z,25.46
2018-06-17T21:38:33.974Z,25.41
2018-06-17T21:42:37.393Z,25.35
2018-06-17T21:46:40.801Z,25.27
2018-06-17T21:50:44.272Z,25.21
2018-06-17T21:54:47.714Z,25.13
2018-06-17T21:58:51.124Z,25.04
2018-06-17T22:02:54.542Z,24.99
2018-06-17T22:06:58.053Z,24.89
2018-06-17T22:11:06.714Z,24.80
2018-06-17T22:15:15.178Z,24.74
2018-06-17T22:19:18.596Z,24.66
2018-06-17T22:23:22.038Z,24.59
2018-06-17T22:27:25.476Z,24.51
2018-06-17T22:31:28.909Z,24.44
2018-06-17T22:35:32.342Z,24.37
2018-06-17T22:39:36.026Z,24.31
2018-06-17T22:43:39.467Z,24.23
2018-06-17T22:47:48.324Z,24.17
2018-06-17T22:51:51.753Z,24.12
2018-06-17T22:55:55.191Z,24.09
2018-06-17T23:00:04.026Z,24.03
2018-06-17T23:04:12.882Z,23.96
2018-06-17T23:08:21.716Z,23.88
2018-06-17T23:12:25.153Z,23.83
2018-06-17T23:16:28.589Z,23.77
2018-06-17T23:20:32.067Z,23.69
2018-06-17T23:24:35.477Z,23.64
2018-06-17T23:28:38.911Z,23.57
2018-06-17T23:32:42.366Z,23.54
2018-06-17T23:36:45.800Z,23.52
2018-06-17T23:40:49.223Z,23.46
2018-06-17T23:44:52.675Z,23.41
2018-06-17T23:49:01.300Z,23.39
2018-06-17T23:53:10.076Z,23.35
2018-06-17T23:57:13.558Z,23.30
